Time;durP1;ratioP1;P1;durP2;ratioP2;P2;SDS_P1;SDS_P2;PMS_P1;PMS_P2;Temp;Humidity;BMP_temperature;BMP_pressure;BME280_temperature;BME280_humidity;BME280_pressure;Samples;Min_cycle;Max_cycle;Signal;HPM_P1;HPM_P2
2021/01/30 00:01:42;;;;;;;2.70;0.70;;;7.90;99.90;;;;;;5009550;28;20042;-78
2021/01/30 00:04:10;;;;;;;6.65;0.98;;;7.90;99.90;;;;;;5008855;28;20093;-78
2021/01/30 00:06:36;;;;;;;3.95;0.60;;;7.80;99.90;;;;;;4998784;28;20057;-78
2021/01/30 00:09:02;;;;;;;8.32;0.75;;;7.90;99.90;;;;;;5008646;28;20029;-78
2021/01/30 00:11:28;;;;;;;3.35;0.63;;;7.80;99.90;;;;;;5011526;28;20044;-78
2021/01/30 00:13:53;;;;;;;6.75;0.73;;;7.80;99.90;;;;;;5004876;28;20034;-78
2021/01/30 00:16:19;;;;;;;3.03;0.70;;;7.80;99.90;;;;;;5014343;28;20022;-78
2021/01/30 00:18:44;;;;;;;3.15;0.77;;;7.80;99.90;;;;;;4995608;28;20107;-78
2021/01/30 00:21:10;;;;;;;4.63;0.98;;;7.80;99.90;;;;;;5006016;28;20415;-78
2021/01/30 00:23:36;;;;;;;4.28;0.73;;;7.80;99.90;;;;;;4989597;28;20045;-78
2021/01/30 00:26:02;;;;;;;7.10;1.00;;;7.80;99.90;;;;;;5006500;28;20034;-78
2021/01/30 00:28:27;;;;;;;9.90;0.77;;;7.80;99.90;;;;;;5006754;28;20482;-78
2021/01/30 00:30:53;;;;;;;7.80;0.70;;;7.80;99.90;;;;;;5008817;28;20529;-77
2021/01/30 00:33:19;;;;;;;2.13;0.60;;;7.70;99.90;;;;;;5007102;28;20118;-77
2021/01/30 00:35:44;;;;;;;5.07;0.77;;;7.60;99.90;;;;;;5009977;28;20660;-78
2021/01/30 00:38:10;;;;;;;2.25;0.45;;;7.60;99.90;;;;;;5005478;28;20476;-78
2021/01/30 00:40:36;;;;;;;2.25;0.60;;;7.50;99.90;;;;;;4991148;28;20048;-77
2021/01/30 00:43:02;;;;;;;3.75;0.60;;;7.50;99.90;;;;;;5010832;28;20037;-78
2021/01/30 00:45:28;;;;;;;3.92;1.02;;;7.50;99.90;;;;;;5000990;28;20068;-77
2021/01/30 00:47:55;;;;;;;2.17;0.55;;;7.40;99.90;;;;;;5008446;28;20037;-77
2021/01/30 00:50:21;;;;;;;2.72;0.45;;;7.40;99.90;;;;;;4999295;28;20041;-77
2021/01/30 00:52:48;;;;;;;4.57;0.73;;;7.30;99.90;;;;;;4989334;28;20033;-78
2021/01/30 00:55:18;;;;;;;4.25;0.70;;;7.30;99.90;;;;;;5009343;28;20069;-78
2021/01/30 00:57:43;;;;;;;0.68;0.35;;;7.30;99.90;;;;;;5003950;28;20045;-78
2021/01/30 01:00:21;;;;;;;3.50;0.45;;;7.30;99.90;;;;;;5009055;28;20030;-78
2021/01/30 01:02:48;;;;;;;4.05;0.60;;;7.30;99.90;;;;;;4991993;28;20057;-78
2021/01/30 01:05:15;;;;;;;1.35;0.50;;;7.40;99.90;;;;;;5000011;28;20046;-78
2021/01/30 01:07:42;;;;;;;2.17;0.43;;;7.30;99.90;;;;;;5006552;28;20051;-78
2021/01/30 01:10:09;;;;;;;3.85;0.88;;;7.40;99.90;;;;;;5007406;28;20046;-77
2021/01/30 01:12:34;;;;;;;5.20;0.63;;;7.40;99.90;;;;;;4986753;28;20379;-78
2021/01/30 01:15:00;;;;;;;3.30;0.40;;;7.40;99.90;;;;;;5014170;28;20095;-77
2021/01/30 01:17:25;;;;;;;1.08;0.43;;;7.40;99.90;;;;;;5005733;28;20038;-78
2021/01/30 01:19:51;;;;;;;4.00;0.70;;;7.40;99.90;;;;;;5005280;28;20093;-78
2021/01/30 01:22:16;;;;;;;2.63;0.85;;;7.40;99.90;;;;;;4987187;28;20088;-78
2021/01/30 01:24:42;;;;;;;3.50;0.80;;;7.30;99.90;;;;;;5007945;28;20041;-78
2021/01/30 01:27:07;;;;;;;9.40;0.63;;;7.40;99.90;;;;;;4984878;28;20034;-78
2021/01/30 01:29:33;;;;;;;1.13;0.40;;;7.40;99.90;;;;;;5005669;28;20037;-78
2021/01/30 01:31:59;;;;;;;2.45;0.40;;;7.40;99.90;;;;;;4986791;28;20037;-77
2021/01/30 01:34:28;;;;;;;0.70;0.28;;;7.30;99.90;;;;;;5005765;28;20092;-78
2021/01/30 01:37:05;;;;;;;0.88;0.38;;;7.30;99.90;;;;;;5003051;28;20038;-77
2021/01/30 01:39:32;;;;;;;7.28;0.70;;;7.50;99.90;;;;;;5011715;28;20045;-77
2021/01/30 01:42:23;;;;;;;1.42;0.38;;;7.40;99.90;;;;;;5007832;28;20038;-79
2021/01/30 01:44:49;;;;;;;3.42;0.40;;;7.40;99.90;;;;;;5009164;28;20256;-78
2021/01/30 01:47:30;;;;;;;5.38;0.65;;;7.50;99.90;;;;;;4989763;28;23106;-78
2021/01/30 01:49:59;;;;;;;4.40;0.60;;;7.50;99.90;;;;;;5010144;28;20100;-78
2021/01/30 01:52:30;;;;;;;3.80;0.43;;;7.60;99.90;;;;;;5008917;28;20042;-79
2021/01/30 01:55:01;;;;;;;1.42;0.40;;;7.60;99.90;;;;;;5010086;28;20042;-77
2021/01/30 01:57:27;;;;;;;2.03;0.60;;;7.60;99.90;;;;;;5005044;28;20060;-78
2021/01/30 01:59:57;;;;;;;6.32;0.60;;;7.50;99.90;;;;;;5009380;28;20136;-79
2021/01/30 02:02:26;;;;;;;1.23;0.40;;;7.70;99.90;;;;;;5007216;28;20038;-78
2021/01/30 02:05:02;;;;;;;3.22;0.38;;;7.70;99.90;;;;;;5007821;28;20073;-78
2021/01/30 02:07:28;;;;;;;1.60;0.40;;;7.60;99.90;;;;;;5007684;28;20037;-78
2021/01/30 02:09:55;;;;;;;2.60;0.70;;;7.60;99.90;;;;;;4992923;28;20048;-79
2021/01/30 02:12:24;;;;;;;3.65;0.40;;;7.50;99.90;;;;;;5013361;28;20127;-78
2021/01/30 02:14:53;;;;;;;2.22;1.08;;;7.50;99.90;;;;;;5010813;28;20050;-78
2021/01/30 02:17:33;;;;;;;3.08;0.40;;;7.40;99.90;;;;;;5006961;28;20030;-78
2021/01/30 02:20:14;;;;;;;1.55;0.50;;;7.50;99.90;;;;;;4988281;28;20033;-77
2021/01/30 02:22:56;;;;;;;2.50;0.47;;;7.40;99.90;;;;;;4992714;28;20062;-78
2021/01/30 02:25:30;;;;;;;1.85;0.40;;;7.40;99.90;;;;;;5012536;28;20140;-78
2021/01/30 02:28:00;;;;;;;;;;;7.40;99.90;;;;;;5012985;28;20037;-78
2021/01/30 02:31:01;;;;;;;1.58;0.50;;;7.40;99.90;;;;;;5010792;28;20306;-79
2021/01/30 02:33:41;;;;;;;1.60;0.50;;;7.40;99.90;;;;;;5013919;28;20038;-79
2021/01/30 02:36:25;;;;;;;2.80;0.50;;;7.40;99.90;;;;;;5011724;28;20053;-77
2021/01/30 02:39:00;;;;;;;3.42;0.30;;;7.40;99.90;;;;;;5008951;28;21654;-77
2021/01/30 02:41:31;;;;;;;1.75;0.32;;;7.40;99.90;;;;;;4984390;28;20406;-77
2021/01/30 02:44:00;;;;;;;0.88;0.15;;;7.40;99.90;;;;;;5007589;28;20577;-77
2021/01/30 02:46:31;;;;;;;0.52;0.20;;;7.30;99.90;;;;;;5011847;28;20108;-77
2021/01/30 02:49:02;;;;;;;1.98;0.43;;;7.30;99.90;;;;;;5006331;28;20052;-77
2021/01/30 02:51:35;;;;;;;1.75;0.45;;;7.20;99.90;;;;;;5003816;28;20102;-78
2021/01/30 02:54:03;;;;;;;3.85;0.43;;;7.10;99.90;;;;;;5007978;28;20658;-77
2021/01/30 02:56:29;;;;;;;0.30;0.30;;;7.00;99.90;;;;;;5000190;28;20034;-78
2021/01/30 02:59:03;;;;;;;0.40;0.22;;;6.90;99.90;;;;;;4987285;28;20305;-79
2021/01/30 03:01:29;;;;;;;2.65;0.40;;;6.90;99.90;;;;;;4989172;28;20402;-78
2021/01/30 03:03:57;;;;;;;1.45;0.45;;;6.80;99.90;;;;;;5003803;28;20042;-78
2021/01/30 03:06:34;;;;;;;0.95;0.50;;;6.80;99.90;;;;;;5005983;28;20142;-79
2021/01/30 03:09:11;;;;;;;1.45;0.50;;;6.80;99.90;;;;;;5002444;28;20112;-78
2021/01/30 03:11:43;;;;;;;0.60;0.20;;;6.60;99.90;;;;;;5004694;28;20040;-78
2021/01/30 03:14:20;;;;;;;2.92;0.50;;;6.60;99.90;;;;;;5003822;28;20036;-79
2021/01/30 03:16:47;;;;;;;5.18;0.50;;;6.60;99.90;;;;;;5004604;28;20045;-78
2021/01/30 03:19:21;;;;;;;3.42;0.40;;;6.60;99.90;;;;;;5004823;28;20042;-78
2021/01/30 03:21:51;;;;;;;0.30;0.20;;;6.60;99.90;;;;;;5004259;28;20123;-79
2021/01/30 03:24:17;;;;;;;2.75;0.22;;;6.50;99.90;;;;;;4986086;28;20057;-79
2021/01/30 03:26:44;;;;;;;0.15;0.15;;;6.50;99.90;;;;;;5004828;28;20137;-78
2021/01/30 03:29:12;;;;;;;1.65;0.30;;;6.40;99.90;;;;;;5005243;28;20034;-78
2021/01/30 03:31:39;;;;;;;2.08;0.35;;;6.40;99.90;;;;;;5002096;28;22521;-79
2021/01/30 03:34:06;;;;;;;0.52;0.35;;;6.40;99.90;;;;;;5003442;28;20516;-78
2021/01/30 03:36:32;;;;;;;1.63;0.50;;;6.50;99.90;;;;;;4985378;28;20095;-77
2021/01/30 03:38:58;;;;;;;1.70;0.43;;;6.50;99.90;;;;;;4985260;28;20059;-78
2021/01/30 03:41:23;;;;;;;0.80;0.30;;;6.50;99.90;;;;;;5004097;28;20045;-78
2021/01/30 03:43:49;;;;;;;0.40;0.30;;;6.50;99.90;;;;;;5001119;28;20262;-79
2021/01/30 03:46:14;;;;;;;0.30;0.20;;;6.50;99.90;;;;;;5001813;28;20045;-79
2021/01/30 03:48:40;;;;;;;0.75;0.40;;;6.50;99.90;;;;;;4999158;28;20029;-78
2021/01/30 03:51:06;;;;;;;0.47;0.30;;;6.50;99.90;;;;;;4998480;28;20510;-78
2021/01/30 03:53:31;;;;;;;1.00;0.30;;;6.60;99.90;;;;;;4996587;28;20034;-78
2021/01/30 03:55:57;;;;;;;1.25;0.30;;;6.60;99.90;;;;;;4998374;28;20037;-78
2021/01/30 03:58:22;;;;;;;1.83;0.60;;;6.50;99.90;;;;;;4999800;28;20405;-79
2021/01/30 04:00:48;;;;;;;0.60;0.30;;;6.60;99.90;;;;;;5008260;28;20345;-78
2021/01/30 04:03:14;;;;;;;1.38;0.30;;;6.60;99.90;;;;;;4997235;28;20316;-78
2021/01/30 04:05:40;;;;;;;4.82;0.32;;;6.70;99.90;;;;;;5004737;28;20041;-79
2021/01/30 04:08:05;;;;;;;3.72;0.50;;;6.70;99.90;;;;;;4979802;28;20042;-78
2021/01/30 04:10:34;;;;;;;1.25;0.43;;;6.70;99.90;;;;;;4997899;28;20053;-78
2021/01/30 04:13:02;;;;;;;1.60;0.50;;;6.80;99.90;;;;;;5005989;28;20033;-79
2021/01/30 04:15:32;;;;;;;0.82;0.40;;;6.70;99.90;;;;;;5010248;28;20112;-79
2021/01/30 04:17:57;;;;;;;2.67;0.30;;;6.70;99.90;;;;;;5007428;28;20037;-78
2021/01/30 04:20:24;;;;;;;0.52;0.32;;;6.70;99.90;;;;;;5011128;28;20037;-78
2021/01/30 04:22:49;;;;;;;3.15;0.40;;;6.60;99.90;;;;;;5009929;28;20424;-79
2021/01/30 04:25:17;;;;;;;2.03;0.40;;;6.60;99.90;;;;;;5007766;28;20054;-78
2021/01/30 04:27:42;;;;;;;1.45;0.30;;;6.70;99.90;;;;;;4983062;28;20405;-79
2021/01/30 04:30:10;;;;;;;3.10;0.30;;;6.70;99.90;;;;;;5008865;28;20042;-79
2021/01/30 04:32:36;;;;;;;0.85;0.30;;;6.80;99.90;;;;;;5005205;28;20046;-79
2021/01/30 04:35:01;;;;;;;3.10;0.50;;;6.90;99.90;;;;;;5009038;28;20508;-79
2021/01/30 04:37:27;;;;;;;2.80;0.38;;;6.90;99.90;;;;;;5010291;28;20068;-79
2021/01/30 04:39:52;;;;;;;2.30;0.45;;;6.90;99.90;;;;;;5008104;28;20061;-78
2021/01/30 04:42:36;;;;;;;4.97;0.85;;;6.90;99.90;;;;;;5010978;28;20073;-78
2021/01/30 04:45:08;;;;;;;1.05;0.28;;;7.00;99.90;;;;;;5008906;28;20045;-78
2021/01/30 04:47:37;;;;;;;0.95;0.47;;;6.90;99.90;;;;;;5005565;28;20044;-78
2021/01/30 04:50:32;;;;;;;2.72;0.55;;;6.90;99.90;;;;;;5008246;28;20057;-78
2021/01/30 04:53:21;;;;;;;4.22;0.68;;;6.90;99.90;;;;;;5009195;28;20049;-78
2021/01/30 04:56:01;;;;;;;2.00;0.70;;;7.00;99.90;;;;;;4990573;28;20045;-78
2021/01/30 04:58:48;;;;;;;5.40;0.50;;;6.90;99.90;;;;;;4986123;28;20048;-78
2021/01/30 05:01:29;;;;;;;1.30;0.50;;;6.80;99.90;;;;;;5007600;28;20450;-78
2021/01/30 05:04:02;;;;;;;3.05;0.47;;;6.90;99.90;;;;;;5008174;28;20084;-78
2021/01/30 05:06:50;;;;;;;9.95;0.98;;;6.90;99.90;;;;;;5009447;28;20044;-78
2021/01/30 05:09:33;;;;;;;2.70;1.00;;;6.90;99.90;;;;;;5007475;28;20049;-78
2021/01/30 05:12:30;;;;;;;5.38;0.80;;;6.90;99.90;;;;;;5008888;28;20061;-78
2021/01/30 05:15:01;;;;;;;6.68;1.15;;;6.90;99.90;;;;;;4979646;28;20045;-78
2021/01/30 05:17:33;;;;;;;4.32;0.93;;;6.90;99.90;;;;;;4994170;28;20033;-78
2021/01/30 05:20:05;;;;;;;7.57;0.88;;;6.90;99.90;;;;;;5006568;28;20172;-78
2021/01/30 05:22:43;;;;;;;3.78;0.93;;;7.00;99.90;;;;;;5005339;28;20228;-78
2021/01/30 05:25:12;;;;;;;5.68;1.02;;;6.90;99.90;;;;;;5010320;28;20112;-78
2021/01/30 05:27:51;;;;;;;4.97;0.93;;;7.00;99.90;;;;;;5007330;28;20068;-78
2021/01/30 05:30:21;;;;;;;4.20;0.73;;;7.00;99.90;;;;;;5012071;28;20529;-78
2021/01/30 05:33:02;;;;;;;6.75;1.33;;;7.00;99.90;;;;;;5010448;28;20073;-77
2021/01/30 05:35:34;;;;;;;11.02;1.90;;;7.00;99.90;;;;;;5014977;28;20034;-78
2021/01/30 05:38:09;;;;;;;7.82;1.48;;;6.90;99.90;;;;;;5011305;28;20033;-77
2021/01/30 05:41:07;;;;;;;8.55;1.83;;;6.90;99.90;;;;;;5011080;28;20044;-78
2021/01/30 05:43:44;;;;;;;8.40;1.25;;;6.90;99.90;;;;;;4950646;28;20050;-77
2021/01/30 05:46:29;;;;;;;5.75;0.98;;;6.90;99.90;;;;;;5007567;28;20042;-77
2021/01/30 05:48:56;;;;;;;4.95;0.77;;;6.90;99.90;;;;;;5019819;28;20029;-78
2021/01/30 05:51:34;;;;;;;8.77;1.80;;;6.70;99.90;;;;;;4998364;28;20037;-78
2021/01/30 05:54:00;;;;;;;10.82;1.08;;;6.70;99.90;;;;;;4989968;28;20172;-78
2021/01/30 05:56:29;;;;;;;11.95;1.23;;;6.80;99.90;;;;;;5002726;28;20441;-78
2021/01/30 05:58:55;;;;;;;11.70;1.70;;;6.80;99.90;;;;;;5003151;28;20557;-77
2021/01/30 06:01:28;;;;;;;9.60;1.58;;;6.80;99.90;;;;;;5008084;28;20042;-78
2021/01/30 06:04:04;;;;;;;4.85;1.48;;;6.80;99.90;;;;;;5010093;28;20107;-78
2021/01/30 06:06:52;;;;;;;10.27;1.42;;;6.90;99.90;;;;;;5007378;28;20151;-78
2021/01/30 06:09:36;;;;;;;10.60;1.38;;;6.90;99.90;;;;;;4994723;28;20040;-78
2021/01/30 06:12:22;;;;;;;10.13;1.45;;;6.90;99.90;;;;;;5009151;28;20034;-77
2021/01/30 06:14:48;;;;;;;16.48;1.85;;;6.90;99.90;;;;;;5006986;28;20545;-77
2021/01/30 06:17:33;;;;;;;14.10;2.53;;;6.90;99.90;;;;;;5008199;28;20069;-77
2021/01/30 06:20:09;;;;;;;7.82;1.30;;;6.90;99.90;;;;;;5011488;28;20053;-78
2021/01/30 06:22:36;;;;;;;9.57;2.28;;;6.90;99.90;;;;;;5011792;28;20034;-78
2021/01/30 06:25:21;;;;;;;3.92;1.05;;;6.90;99.90;;;;;;5010543;28;20048;-78
2021/01/30 06:27:49;;;;;;;8.27;1.13;;;6.90;99.90;;;;;;4994359;28;20120;-78
2021/01/30 06:30:35;;;;;;;13.30;1.67;;;6.80;99.90;;;;;;5011956;28;20136;-78
2021/01/30 06:33:22;;;;;;;13.35;1.75;;;6.80;99.90;;;;;;5012139;28;20033;-77
2021/01/30 06:35:48;;;;;;;14.13;2.08;;;6.80;99.90;;;;;;5012174;28;20505;-79
2021/01/30 06:38:20;;;;;;;13.70;1.92;;;6.80;99.90;;;;;;5009343;28;20099;-78
2021/01/30 06:40:55;;;;;;;8.70;1.35;;;6.90;99.90;;;;;;5010802;28;20040;-79
2021/01/30 06:43:30;;;;;;;6.80;1.30;;;6.80;99.90;;;;;;5005174;28;20034;-79
2021/01/30 06:46:17;;;;;;;8.65;1.67;;;6.70;99.90;;;;;;5011160;28;20044;-79
2021/01/30 06:48:49;;;;;;;10.20;1.77;;;6.70;99.90;;;;;;4991917;28;20452;-79
2021/01/30 06:51:28;;;;;;;12.98;2.00;;;6.60;99.90;;;;;;5011402;28;20556;-79
2021/01/30 06:53:54;;;;;;;17.98;3.13;;;6.60;99.90;;;;;;4994281;28;20044;-79
2021/01/30 06:56:26;;;;;;;8.82;1.70;;;6.80;99.90;;;;;;5008128;28;20708;-78
2021/01/30 06:59:03;;;;;;;17.92;1.92;;;6.80;99.90;;;;;;4990408;28;20565;-78
2021/01/30 07:01:42;;;;;;;15.18;1.90;;;6.70;99.90;;;;;;5004151;28;20045;-78
2021/01/30 07:04:34;;;;;;;11.27;2.38;;;6.80;99.90;;;;;;4989019;28;20044;-78
2021/01/30 07:07:32;;;;;;;11.43;1.80;;;6.90;99.90;;;;;;4984088;28;20045;-77
2021/01/30 07:10:24;;;;;;;16.00;1.77;;;6.90;99.90;;;;;;4984921;28;20742;-77
2021/01/30 07:13:04;;;;;;;21.30;1.90;;;6.80;99.90;;;;;;5005058;28;20033;-78
2021/01/30 07:15:31;;;;;;;20.35;1.88;;;6.80;99.90;;;;;;5003673;28;20072;-78
2021/01/30 07:18:05;;;;;;;13.07;1.77;;;6.90;99.90;;;;;;5003360;28;20042;-78
2021/01/30 07:20:57;;;;;;;11.52;1.60;;;6.90;99.90;;;;;;5002926;28;20625;-78
2021/01/30 07:23:30;;;;;;;12.48;2.55;;;6.90;99.90;;;;;;5005827;28;20044;-77
2021/01/30 07:26:02;;;;;;;15.70;2.13;;;6.80;99.90;;;;;;5006539;28;20093;-78
2021/01/30 07:28:43;;;;;;;11.52;1.45;;;6.90;99.90;;;;;;5006941;28;20068;-78
2021/01/30 07:31:23;;;;;;;13.63;2.10;;;7.00;99.90;;;;;;4995951;28;20041;-78
2021/01/30 07:33:52;;;;;;;9.30;2.30;;;7.10;99.90;;;;;;5002072;28;20077;-78
2021/01/30 07:36:30;;;;;;;15.48;2.30;;;7.00;99.90;;;;;;4999823;28;20148;-77
2021/01/30 07:39:13;;;;;;;24.98;2.05;;;7.00;99.90;;;;;;5001809;28;20427;-78
2021/01/30 07:41:56;;;;;;;13.45;2.20;;;7.00;99.90;;;;;;4982434;28;20034;-78
2021/01/30 07:44:34;;;;;;;11.40;2.08;;;7.10;99.90;;;;;;4999318;28;20493;-77
2021/01/30 07:47:20;;;;;;;14.80;1.70;;;7.20;99.90;;;;;;4999919;28;20045;-77
2021/01/30 07:49:59;;;;;;;9.80;2.10;;;7.30;99.90;;;;;;5012380;28;20046;-77
2021/01/30 07:52:30;;;;;;;12.60;2.05;;;7.20;99.90;;;;;;5007916;28;20117;-77
2021/01/30 07:54:58;;;;;;;9.90;1.80;;;7.20;99.90;;;;;;5010262;28;20045;-78
2021/01/30 07:57:56;;;;;;;10.95;1.52;;;7.20;99.90;;;;;;5010606;28;20498;-78
2021/01/30 08:00:29;;;;;;;18.17;2.40;;;7.20;99.90;;;;;;5009769;28;20645;-79
2021/01/30 08:03:05;;;;;;;12.20;1.67;;;7.20;99.90;;;;;;4989454;28;20140;-78
2021/01/30 08:05:45;;;;;;;14.75;1.95;;;7.30;99.90;;;;;;5007196;28;20029;-78
2021/01/30 08:08:27;;;;;;;11.57;2.33;;;7.30;99.90;;;;;;5007028;28;20410;-77
2021/01/30 08:11:17;;;;;;;21.25;2.25;;;7.30;99.90;;;;;;5005282;28;20046;-77
2021/01/30 08:14:03;;;;;;;21.52;2.60;;;7.40;99.90;;;;;;5004969;28;20046;-77
2021/01/30 08:16:37;;;;;;;16.95;2.20;;;7.50;99.90;;;;;;4996739;28;20050;-76
2021/01/30 08:19:12;;;;;;;17.27;2.47;;;7.50;99.90;;;;;;5010385;28;20069;-77
2021/01/30 08:22:00;;;;;;;11.32;1.98;;;7.50;99.90;;;;;;5008812;28;20314;-76
2021/01/30 08:24:38;;;;;;;8.25;1.70;;;7.60;99.90;;;;;;5011185;28;20609;-77
2021/01/30 08:27:35;;;;;;;11.60;2.90;;;7.70;99.90;;;;;;5009903;28;20048;-79
2021/01/30 08:30:28;;;;;;;19.08;2.20;;;7.60;99.90;;;;;;5009125;28;20611;-76
2021/01/30 08:33:06;;;;;;;13.05;1.85;;;7.60;99.90;;;;;;5009283;28;20038;-79
2021/01/30 08:35:31;;;;;;;9.88;2.15;;;7.60;99.90;;;;;;5009212;28;20044;-78
2021/01/30 08:37:58;;;;;;;14.90;2.35;;;7.70;99.90;;;;;;4992670;28;20033;-78
2021/01/30 08:40:57;;;;;;;18.63;2.17;;;7.70;99.90;;;;;;5009663;28;20038;-78
2021/01/30 08:43:43;;;;;;;10.60;2.47;;;7.80;99.90;;;;;;5013055;28;20120;-78
2021/01/30 08:46:24;;;;;;;17.20;2.00;;;7.80;99.90;;;;;;5010174;28;20033;-78
2021/01/30 08:49:15;;;;;;;15.13;2.60;;;7.80;99.90;;;;;;5009436;28;20194;-77
2021/01/30 08:51:45;;;;;;;14.00;2.03;;;7.80;99.90;;;;;;5011846;28;20088;-77
2021/01/30 08:54:33;;;;;;;18.75;2.33;;;7.90;99.90;;;;;;5011799;28;20510;-77
2021/01/30 08:57:00;;;;;;;13.82;1.73;;;7.90;99.90;;;;;;5008306;28;20180;-76
2021/01/30 08:59:49;;;;;;;10.10;2.92;;;7.90;99.90;;;;;;5008067;28;20495;-76
2021/01/30 09:02:27;;;;;;;20.92;2.47;;;7.90;99.90;;;;;;5018691;28;20041;-76
2021/01/30 09:05:22;;;;;;;20.60;2.58;;;7.90;99.90;;;;;;5017905;28;20102;-77
2021/01/30 09:08:11;;;;;;;9.40;1.70;;;7.90;99.90;;;;;;5012662;28;20038;-77
2021/01/30 09:10:38;;;;;;;12.65;2.38;;;8.00;99.90;;;;;;4972541;28;20447;-77
2021/01/30 09:13:09;;;;;;;10.65;1.98;;;8.00;99.90;;;;;;4996208;28;20062;-77
2021/01/30 09:15:40;;;;;;;9.98;2.40;;;8.10;99.90;;;;;;5009993;28;20514;-76
2021/01/30 09:18:32;;;;;;;13.55;2.25;;;8.10;99.90;;;;;;5010258;28;20534;-76
2021/01/30 09:21:05;;;;;;;24.27;2.67;;;8.10;99.90;;;;;;5006414;28;20033;-77
2021/01/30 09:23:55;;;;;;;17.67;2.45;;;8.10;99.90;;;;;;5009244;28;20045;-76
2021/01/30 09:26:41;;;;;;;10.15;2.38;;;8.20;99.90;;;;;;5013863;28;20042;-77
2021/01/30 09:29:08;;;;;;;12.32;2.03;;;8.20;99.90;;;;;;5010061;28;20438;-77
2021/01/30 09:31:34;;;;;;;15.55;2.83;;;8.30;99.90;;;;;;5012819;28;20108;-77
2021/01/30 09:34:11;;;;;;;25.42;2.50;;;8.30;99.90;;;;;;5014173;28;20520;-77
2021/01/30 09:36:38;;;;;;;19.45;3.50;;;8.30;99.90;;;;;;5012800;28;20038;-78
2021/01/30 09:39:20;;;;;;;14.55;1.75;;;8.40;99.90;;;;;;5012063;28;20405;-77
2021/01/30 09:41:45;;;;;;;7.07;2.05;;;8.40;99.90;;;;;;4989696;28;20029;-77
2021/01/30 09:44:23;;;;;;;16.73;2.63;;;8.40;99.90;;;;;;5008909;28;20434;-79
2021/01/30 09:47:02;;;;;;;15.82;2.60;;;8.50;99.90;;;;;;5011601;28;20030;-79
2021/01/30 09:49:40;;;;;;;21.30;3.35;;;8.60;99.90;;;;;;5008139;28;20038;-79
2021/01/30 09:52:07;;;;;;;14.95;2.88;;;8.60;99.90;;;;;;5009862;28;20041;-79
2021/01/30 09:54:34;;;;;;;19.23;2.55;;;8.70;99.90;;;;;;4990924;28;20030;-79
2021/01/30 09:57:05;;;;;;;15.38;2.58;;;8.70;99.90;;;;;;5008632;28;20033;-78
2021/01/30 09:59:31;;;;;;;11.50;2.08;;;8.70;99.90;;;;;;5008923;28;21178;-78
2021/01/30 10:02:20;;;;;;;13.10;2.33;;;8.70;99.90;;;;;;5004822;28;20030;-77
2021/01/30 10:04:47;;;;;;;8.88;1.85;;;8.80;99.90;;;;;;5016208;28;20101;-79
2021/01/30 10:07:24;;;;;;;13.15;2.72;;;8.80;99.90;;;;;;5013715;28;20026;-78
2021/01/30 10:09:50;;;;;;;21.88;2.40;;;8.90;99.90;;;;;;5010606;28;20037;-79
2021/01/30 10:12:19;;;;;;;18.40;2.75;;;9.00;99.90;;;;;;5010805;28;20030;-81
2021/01/30 10:14:55;;;;;;;16.08;2.45;;;9.00;99.90;;;;;;4989662;28;20037;-79
2021/01/30 10:17:28;;;;;;;21.77;2.95;;;9.00;99.90;;;;;;5006353;28;20042;-78
2021/01/30 10:20:20;;;;;;;16.70;2.55;;;9.00;99.90;;;;;;5006238;28;20687;-76
2021/01/30 10:22:49;;;;;;;32.92;8.65;;;9.00;99.90;;;;;;4987764;28;20132;-81
2021/01/30 10:25:26;;;;;;;16.02;3.00;;;9.00;99.90;;;;;;5011098;28;20037;-79
2021/01/30 10:28:10;;;;;;;26.60;3.05;;;8.90;99.90;;;;;;5006069;28;20033;-78
2021/01/30 10:30:37;;;;;;;14.25;2.47;;;8.90;99.90;;;;;;5000979;28;20057;-78
2021/01/30 10:33:08;;;;;;;14.40;2.40;;;9.00;99.90;;;;;;5009908;28;20552;-78
2021/01/30 10:35:50;;;;;;;14.50;2.75;;;8.90;99.90;;;;;;4991501;28;20072;-78
2021/01/30 10:38:19;;;;;;;21.55;2.22;;;8.80;99.90;;;;;;4998363;28;20137;-78
2021/01/30 10:40:54;;;;;;;9.55;2.20;;;8.80;99.90;;;;;;5001347;28;20045;-78
2021/01/30 10:43:22;;;;;;;15.45;2.50;;;8.70;99.90;;;;;;4982226;28;20566;-78
2021/01/30 10:45:55;;;;;;;16.08;2.55;;;8.70;99.90;;;;;;4999822;28;20124;-77
2021/01/30 10:48:23;;;;;;;17.27;2.65;;;8.70;99.90;;;;;;4995383;28;20128;-78
2021/01/30 10:50:50;;;;;;;15.73;1.98;;;8.80;99.90;;;;;;4978862;28;20518;-78
2021/01/30 10:53:23;;;;;;;12.70;2.28;;;8.70;99.90;;;;;;4997452;28;20136;-79
2021/01/30 10:55:50;;;;;;;13.50;2.20;;;8.70;99.90;;;;;;4998493;28;20044;-79
2021/01/30 10:58:16;;;;;;;13.98;2.20;;;8.70;99.90;;;;;;4999399;28;20046;-78
2021/01/30 11:00:42;;;;;;;9.40;2.15;;;8.70;99.90;;;;;;5000112;28;20030;-78
2021/01/30 11:03:25;;;;;;;15.13;1.85;;;8.70;99.90;;;;;;5001074;28;20084;-78
2021/01/30 11:05:52;;;;;;;16.10;2.28;;;8.70;99.90;;;;;;5000315;28;20049;-78
2021/01/30 11:08:27;;;;;;;8.07;1.60;;;8.60;99.90;;;;;;5003363;28;20038;-77
2021/01/30 11:11:01;;;;;;;12.43;2.22;;;8.60;99.90;;;;;;5006387;28;20045;-79
2021/01/30 11:13:34;;;;;;;16.80;2.00;;;8.60;99.90;;;;;;4990409;28;20038;-78
2021/01/30 11:16:16;;;;;;;18.83;2.63;;;8.60;99.90;;;;;;4995315;28;20061;-78
2021/01/30 11:18:48;;;;;;;17.55;2.45;;;8.60;99.90;;;;;;5003862;28;20601;-78
2021/01/30 11:21:31;;;;;;;13.30;2.05;;;8.50;99.90;;;;;;5003061;28;20041;-78
2021/01/30 11:23:59;;;;;;;20.13;2.13;;;8.40;99.90;;;;;;5007710;28;20046;-76
2021/01/30 11:26:37;;;;;;;12.48;2.00;;;8.50;99.90;;;;;;5007899;28;20089;-79
2021/01/30 11:29:25;;;;;;;20.20;2.58;;;8.50;99.90;;;;;;5002092;28;20042;-78
2021/01/30 11:31:50;;;;;;;6.57;1.90;;;8.60;99.90;;;;;;4987294;28;20099;-78
2021/01/30 11:34:16;;;;;;;12.40;2.38;;;8.50;99.90;;;;;;5003155;28;20034;-77
2021/01/30 11:36:44;;;;;;;12.32;2.28;;;8.40;99.90;;;;;;5007830;28;20264;-77
2021/01/30 11:39:10;;;;;;;11.85;2.17;;;8.40;99.90;;;;;;5006038;28;20033;-78
2021/01/30 11:41:35;;;;;;;17.45;2.45;;;8.50;99.90;;;;;;4986427;28;20128;-78
2021/01/30 11:44:01;;;;;;;7.78;1.40;;;8.50;99.90;;;;;;5004908;28;20025;-78
2021/01/30 11:46:26;;;;;;;18.60;2.58;;;8.50;99.90;;;;;;5001676;28;20040;-79
2021/01/30 11:48:52;;;;;;;12.50;1.90;;;8.60;99.90;;;;;;4984053;28;20029;-79
2021/01/30 11:51:22;;;;;;;12.32;1.95;;;8.50;99.90;;;;;;5005562;28;20120;-79
2021/01/30 11:53:48;;;;;;;12.60;1.88;;;8.50;99.90;;;;;;5010736;28;20048;-79
2021/01/30 11:56:14;;;;;;;9.60;1.30;;;8.50;99.90;;;;;;5007743;28;20402;-79
2021/01/30 11:58:40;;;;;;;10.82;1.80;;;8.60;99.90;;;;;;5006756;28;20057;-79
2021/01/30 12:01:06;;;;;;;16.08;4.03;;;8.50;99.90;;;;;;5007087;28;20041;-79
2021/01/30 12:03:31;;;;;;;4.32;1.83;;;8.60;99.90;;;;;;5008297;28;20078;-79
2021/01/30 12:05:58;;;;;;;9.93;1.92;;;8.70;99.90;;;;;;5008517;28;20071;-78
2021/01/30 12:08:25;;;;;;;8.05;1.63;;;8.70;99.90;;;;;;5008108;28;20041;-78
2021/01/30 12:10:52;;;;;;;15.93;2.08;;;8.60;99.90;;;;;;5007171;28;20099;-78
2021/01/30 12:13:18;;;;;;;12.15;1.98;;;8.50;99.90;;;;;;5009621;28;20183;-78
2021/01/30 12:15:43;;;;;;;12.32;2.50;;;8.50;99.90;;;;;;4991489;28;20517;-78
2021/01/30 12:18:11;;;;;;;14.82;2.00;;;8.50;99.90;;;;;;5007528;28;20044;-79
2021/01/30 12:20:37;;;;;;;9.13;1.65;;;8.50;99.90;;;;;;5012576;28;20050;-79
2021/01/30 12:23:03;;;;;;;10.98;1.50;;;8.50;99.90;;;;;;5007613;28;20030;-78
2021/01/30 12:25:29;;;;;;;17.65;1.70;;;8.40;99.90;;;;;;4990379;28;20042;-80
2021/01/30 12:27:58;;;;;;;5.85;1.45;;;8.40;99.90;;;;;;4994885;28;20045;-77
2021/01/30 12:30:27;;;;;;;13.32;2.05;;;8.40;99.90;;;;;;5001099;28;20065;-78
2021/01/30 12:32:53;;;;;;;9.80;1.58;;;8.30;99.90;;;;;;5000965;28;20686;-78
2021/01/30 12:35:22;;;;;;;9.13;1.58;;;8.30;99.90;;;;;;4998472;28;20125;-80
2021/01/30 12:37:47;;;;;;;8.15;1.55;;;8.30;99.90;;;;;;4996336;28;20048;-79
2021/01/30 12:40:14;;;;;;;10.63;1.50;;;8.20;99.90;;;;;;4992881;28;20038;-80
2021/01/30 12:42:40;;;;;;;8.50;1.50;;;8.10;99.90;;;;;;5000220;28;20057;-76
2021/01/30 12:45:07;;;;;;;9.38;1.55;;;8.10;99.90;;;;;;5003321;28;20128;-76
2021/01/30 12:47:33;;;;;;;7.13;1.48;;;8.20;99.90;;;;;;5005724;28;21091;-77
2021/01/30 12:49:59;;;;;;;7.18;1.90;;;8.10;99.90;;;;;;4997389;28;20121;-77
2021/01/30 12:52:25;;;;;;;8.07;1.83;;;8.10;99.90;;;;;;5001861;28;20679;-78
2021/01/30 12:54:51;;;;;;;11.40;2.05;;;8.20;99.90;;;;;;4985563;28;20033;-78
2021/01/30 12:57:17;;;;;;;17.52;2.67;;;8.20;99.90;;;;;;5002844;28;20137;-78
2021/01/30 12:59:43;;;;;;;15.75;1.98;;;8.20;99.90;;;;;;4994981;28;20312;-79
2021/01/30 13:02:09;;;;;;;11.20;2.75;;;8.20;99.90;;;;;;4993375;28;20697;-79
2021/01/30 13:04:34;;;;;;;15.20;2.40;;;8.20;99.90;;;;;;5009584;28;20055;-79
2021/01/30 13:07:00;;;;;;;15.00;2.25;;;8.10;99.90;;;;;;5007180;28;20044;-78
2021/01/30 13:09:26;;;;;;;5.28;1.60;;;8.10;99.90;;;;;;5007824;28;20488;-77
2021/01/30 13:11:52;;;;;;;14.18;2.17;;;8.10;99.90;;;;;;5005801;28;20557;-77
2021/01/30 13:14:18;;;;;;;13.20;2.28;;;8.00;99.90;;;;;;5008226;28;20050;-78
2021/01/30 13:16:43;;;;;;;11.82;2.20;;;8.00;99.90;;;;;;5004413;28;20029;-78
2021/01/30 13:19:13;;;;;;;9.73;1.75;;;7.90;99.90;;;;;;5002650;28;20046;-79
2021/01/30 13:21:39;;;;;;;12.15;3.05;;;8.00;99.90;;;;;;5002438;28;20077;-78